MSC Corinna — 3FPI7 — position and weather

sailwx.info

Track history (hours):
 
Tides and Currents Weather Stations Pressure Air Temp Water Temp Dewpoint Dewpoint Depression Visibility Wind Speed Wind Dir Waves Ship Positions

MSC Corinna

Last reported at 2018-Apr-18 19:50 UTC. Time now 2018-Apr-27 06:50 UTC.
Position N 09°11' W 079°53'.
Warning: this ship's position is 8 days out of date.

Length 228 m; draft 14.4 m.

Type: Tanker. MMSI: 356696000.

Date/timePositionNaut miles runAvg speedWind from/ knotsBaromVisibWave heightAir tempDewpointWater temp
2018-Apr-18 19:50N 09°11' W 079°53'3 9.8
2018-Apr-18 19:29N 09°13' W 079°55'1 0.6
2018-Apr-18 18:37N 09°13' W 079°56'0 0.0
2018-Apr-18 18:25N 09°13' W 079°56'0 0.0
2018-Apr-18 12:19N 09°13' W 079°56'3 2.2
2018-Apr-18 10:50N 09°16' W 079°55'0 0.5
2018-Apr-18 10:30N 09°16' W 079°55'0 0.5
2018-Apr-18 10:00N 09°17' W 079°55'0 0.5
2018-Apr-18 09:16N 09°17' W 079°55'1 1.6
2018-Apr-18 08:50N 09°18' W 079°55'2 6.3
2018-Apr-18 08:30N 09°20' W 079°55'3 6.1
2018-Apr-18 08:00N 09°23' W 079°55'3 5.7
2018-Apr-18 07:31N 09°26' W 079°56'1 1.6
2018-Apr-18 06:54N 09°25' W 079°56'0 0.0
2018-Apr-18 06:27N 09°25' W 079°56'0 0.0
2018-Apr-18 05:57N 09°25' W 079°56'0 0.0
2018-Apr-18 05:30N 09°25' W 079°56'0 0.0
2018-Apr-18 05:00N 09°25' W 079°56'0 0.0
2018-Apr-18 04:30N 09°25' W 079°56'0 0.0
2018-Apr-18 04:00N 09°25' W 079°56'0 0.0
2018-Apr-18 03:30N 09°25' W 079°56'0 0.0
2018-Apr-18 02:36N 09°25' W 079°56'0 0.0
2018-Apr-18 02:24N 09°25' W 079°56'0 0.0
2018-Apr-18 01:51N 09°25' W 079°56'0 0.0
2018-Apr-18 01:27N 09°25' W 079°56'0 0.0
2018-Apr-18 01:00N 09°25' W 079°56'0 0.0
2018-Apr-18 00:30N 09°25' W 079°56'0 0.0
2018-Apr-18 00:00N 09°25' W 079°56'0 0.0
2018-Apr-17 23:30N 09°25' W 079°56'0 0.0
2018-Apr-17 22:57N 09°25' W 079°56'0 0.0
2018-Apr-17 22:30N 09°25' W 079°56'0 0.0
2018-Apr-17 22:00N 09°25' W 079°56'0 0.0
2018-Apr-17 21:30N 09°25' W 079°56'0 0.0
2018-Apr-17 21:00N 09°25' W 079°56'0 0.0
2018-Apr-17 20:30N 09°25' W 079°56'0 0.0
2018-Apr-17 20:00N 09°25' W 079°56'0 0.0
2018-Apr-17 19:30N 09°25' W 079°56'0 0.0
2018-Apr-17 19:00N 09°25' W 079°56'0 0.0
2018-Apr-17 18:30N 09°25' W 079°56'0 0.0
2018-Apr-17 18:00N 09°25' W 079°56'0 0.0
2018-Apr-17 17:30N 09°25' W 079°56'0 0.0
2018-Apr-17 17:00N 09°25' W 079°56'0 0.0
2018-Apr-17 16:21N 09°25' W 079°56'0 0.0
2018-Apr-17 16:00N 09°25' W 079°56'0 0.0
2018-Apr-17 15:30N 09°25' W 079°56'0 0.0
2018-Apr-17 14:54N 09°25' W 079°56'0 0.0
2018-Apr-17 14:27N 09°25' W 079°56'0 0.0
2018-Apr-17 14:00N 09°25' W 079°56'0 0.0
2018-Apr-17 13:27N 09°25' W 079°56'0 0.0
2018-Apr-17 12:57N 09°25' W 079°56'0 0.0
2018-Apr-17 12:27N 09°25' W 079°56'0 0.0
2018-Apr-17 11:45N 09°25' W 079°56'0 0.0
2018-Apr-17 11:18N 09°25' W 079°56'0 0.0
2018-Apr-17 11:00N 09°25' W 079°56'0 0.0
2018-Apr-17 10:30N 09°25' W 079°56'0 0.0
2018-Apr-17 09:57N 09°25' W 079°56'0 0.0
2018-Apr-17 09:30N 09°25' W 079°56'0 0.0
2018-Apr-17 09:00N 09°25' W 079°56'0 0.0
2018-Apr-17 08:30N 09°25' W 079°56'0 0.0
2018-Apr-17 08:00N 09°25' W 079°56'0 0.0
2018-Apr-17 07:30N 09°25' W 079°56'0 0.0
2018-Apr-17 07:00N 09°25' W 079°56'0 0.0
2018-Apr-17 06:27N 09°25' W 079°56'0 0.0
2018-Apr-17 06:00N 09°25' W 079°56'0 0.0
2018-Apr-17 05:30N 09°25' W 079°56'0 0.0
2018-Apr-17 05:00N 09°25' W 079°56'0 0.0
2018-Apr-17 04:27N 09°25' W 079°56'0 0.0
2018-Apr-17 04:00N 09°25' W 079°56'0 0.0
2018-Apr-17 03:30N 09°25' W 079°56'0 0.0
2018-Apr-17 03:00N 09°25' W 079°56'0 0.0
2018-Apr-17 02:30N 09°25' W 079°56'0 0.0
2018-Apr-17 02:00N 09°25' W 079°56'0 0.0
2018-Apr-17 01:30N 09°25' W 079°56'0 0.0
2018-Apr-17 01:00N 09°25' W 079°56'0 0.0
2018-Apr-17 00:27N 09°25' W 079°56'0 0.0
2018-Apr-16 23:57N 09°25' W 079°56'0 0.0
2018-Apr-16 23:27N 09°25' W 079°56'0 0.0
2018-Apr-16 22:57N 09°25' W 079°56'0 0.0
2018-Apr-16 22:30N 09°25' W 079°56'0 0.0
2018-Apr-16 22:00N 09°25' W 079°56'0 0.0
2018-Apr-16 21:27N 09°25' W 079°56'0 0.0
2018-Apr-16 21:00N 09°25' W 079°56'0 0.0
2018-Apr-16 20:18N 09°25' W 079°56'0 0.0
2018-Apr-16 20:00N 09°25' W 079°56'0 0.0
2018-Apr-16 19:24N 09°25' W 079°56'0 0.0
2018-Apr-16 19:00N 09°25' W 079°56'0 0.0
2018-Apr-16 18:27N 09°25' W 079°56'0 0.0
2018-Apr-16 18:00N 09°25' W 079°56'0 0.0
2018-Apr-16 17:30N 09°25' W 079°56'0 0.0
2018-Apr-16 17:00N 09°25' W 079°56'0 0.1
2018-Apr-16 16:30N 09°25' W 079°56'0 0.0
2018-Apr-16 15:54N 09°25' W 079°56'0 0.0
2018-Apr-16 14:54N 09°25' W 079°56'0 0.0
2018-Apr-16 14:30N 09°25' W 079°56'0 0.1
2018-Apr-16 14:00N 09°25' W 079°56'0 0.0
2018-Apr-16 13:30N 09°25' W 079°56'0 0.0
2018-Apr-16 13:00N 09°25' W 079°56'0 0.0
2018-Apr-16 12:27N 09°25' W 079°56'0 0.0
2018-Apr-16 11:39N 09°25' W 079°56'0 0.0
2018-Apr-16 11:15N 09°25' W 079°56'0 0.0
2018-Apr-16 10:48N 09°25' W 079°56'0 0.0
2018-Apr-16 10:30N 09°25' W 079°56'0 0.1
2018-Apr-16 10:00N 09°25' W 079°56'0 0.1
2018-Apr-16 09:30N 09°25' W 079°56'0 0.0
2018-Apr-16 09:00N 09°25' W 079°56'0 0.0
2018-Apr-16 08:27N 09°25' W 079°56'0 0.0
2018-Apr-16 08:00N 09°25' W 079°56'0 0.0
2018-Apr-16 07:30N 09°25' W 079°56'0 0.0
2018-Apr-16 07:00N 09°25' W 079°56'0 0.0
2018-Apr-16 06:30N 09°25' W 079°56'0 0.0
2018-Apr-16 06:00N 09°25' W 079°56'0 0.0
2018-Apr-16 05:30N 09°25' W 079°56'0 0.0
2018-Apr-16 05:00N 09°25' W 079°56'0 0.0
2018-Apr-16 04:30N 09°25' W 079°56'0 0.0
2018-Apr-16 04:00N 09°25' W 079°56'0 0.0
2018-Apr-16 03:27N 09°25' W 079°56'0 0.0
2018-Apr-16 03:00N 09°25' W 079°56'0 0.0
2018-Apr-16 02:30N 09°25' W 079°56'0 0.0
2018-Apr-16 02:00N 09°25' W 079°56'0 0.0
2018-Apr-16 01:30N 09°25' W 079°56'0 0.0
2018-Apr-16 00:12N 09°25' W 079°56'0 0.0
2018-Apr-15 23:09N 09°25' W 079°56'0 0.0
2018-Apr-15 22:51N 09°25' W 079°56'0 0.1
2018-Apr-15 22:27N 09°25' W 079°56'0 0.0
2018-Apr-15 22:00N 09°25' W 079°56'0 0.0
2018-Apr-15 21:30N 09°25' W 079°56'0 0.0
2018-Apr-15 20:57N 09°25' W 079°56'0 0.1
2018-Apr-15 20:24N 09°25' W 079°56'0 0.0
2018-Apr-15 20:00N 09°25' W 079°56'0 0.0
2018-Apr-15 19:27N 09°25' W 079°56'0 0.1
2018-Apr-15 18:57N 09°25' W 079°56'0 0.1
2018-Apr-15 18:30N 09°25' W 079°56'0 0.0
2018-Apr-15 18:00N 09°25' W 079°56'0 0.1
2018-Apr-15 17:30N 09°25' W 079°56'0 0.0
2018-Apr-15 16:57N 09°25' W 079°56'0 0.0
2018-Apr-15 16:18N 09°25' W 079°56'0 0.0
2018-Apr-15 15:57N 09°25' W 079°56'0 0.1
2018-Apr-15 15:30N 09°25' W 079°56'0 0.1
2018-Apr-15 14:57N 09°25' W 079°56'0 0.0
2018-Apr-15 14:27N 09°25' W 079°56'0 0.0
2018-Apr-15 13:54N 09°25' W 079°56'0 0.0
2018-Apr-15 12:48N 09°25' W 079°56'0 0.1
2018-Apr-15 12:21N 09°25' W 079°56'0 0.0
2018-Apr-15 11:51N 09°25' W 079°56'0 0.1
2018-Apr-15 11:30N 09°25' W 079°56'0 0.0
2018-Apr-15 11:00N 09°25' W 079°56'0 0.0
2018-Apr-15 10:27N 09°25' W 079°56'0 0.0
2018-Apr-15 09:57N 09°25' W 079°56'0 0.0
2018-Apr-15 09:30N 09°25' W 079°56'0 0.1
2018-Apr-15 08:54N 09°25' W 079°56'0 0.0
2018-Apr-15 08:30N 09°25' W 079°56'0 0.0
2018-Apr-15 08:00N 09°25' W 079°56'0 0.0
2018-Apr-15 07:30N 09°25' W 079°56'0 0.0
2018-Apr-15 07:00N 09°25' W 079°56'0 0.0
2018-Apr-15 06:30N 09°25' W 079°56'0 0.0
2018-Apr-15 06:00N 09°25' W 079°56'0 0.0
2018-Apr-15 05:30N 09°25' W 079°56'0 0.0
2018-Apr-15 05:00N 09°25' W 079°56'0 0.0
2018-Apr-15 04:24N 09°25' W 079°56'0 0.0
2018-Apr-15 04:00N 09°25' W 079°56'0 0.0
2018-Apr-15 03:30N 09°25' W 079°56'0 0.0
2018-Apr-15 03:00N 09°25' W 079°56'0 0.0
2018-Apr-15 02:24N 09°25' W 079°56'0 0.0
2018-Apr-15 02:00N 09°25' W 079°56'0 0.0
2018-Apr-15 01:30N 09°25' W 079°56'0 0.0
2018-Apr-15 00:45N 09°25' W 079°56'0 0.0
2018-Apr-15 00:30N 09°25' W 079°56'0 0.0
2018-Apr-15 00:00N 09°25' W 079°56'0 0.0
2018-Apr-14 23:09N 09°25' W 079°56'0 0.0
2018-Apr-14 22:57N 09°25' W 079°56'0 0.0
2018-Apr-14 22:30N 09°25' W 079°56'0 0.0
2018-Apr-14 21:57N 09°25' W 079°56'0 0.0
2018-Apr-14 19:06N 09°25' W 079°56'0 0.1
2018-Apr-14 19:00N 09°25' W 079°56'0 0.1
2018-Apr-14 18:27N 09°25' W 079°56'0 0.4
2018-Apr-14 18:00N 09°25' W 079°56'1 2.0
2018-Apr-14 17:29N 09°25' W 079°55'4 7.2
2018-Apr-14 17:00N 09°29' W 079°54'4 7.4
2018-Apr-14 16:28N 09°32' W 079°53'  
2018-Apr-11 19:33N 09°32' W 079°49'113.3
2018-Apr-11 19:30N 09°32' W 079°50'713.2
2018-Apr-11 18:59N 09°27' W 079°55'510.3
2018-Apr-11 18:30N 09°22' W 079°55'4 7.9
2018-Apr-11 18:01N 09°18' W 079°55'1 2.7
2018-Apr-11 17:29N 09°17' W 079°55'0 0.4
2018-Apr-11 17:01N 09°16' W 079°55'0 0.6
2018-Apr-11 16:31N 09°16' W 079°55'0 0.8
2018-Apr-11 16:00N 09°16' W 079°55'0 0.9
2018-Apr-11 15:29N 09°15' W 079°55'1 2.0
2018-Apr-11 15:00N 09°14' W 079°55'  
Track history (hours):
 
Tides and Currents Weather Stations Pressure Air Temp Water Temp Dewpoint Dewpoint Depression Visibility Wind Speed Wind Dir Waves Ship Positions

MSC Corinna

Last reported at 2018-Apr-18 19:50 UTC. Time now 2018-Apr-27 06:50 UTC.
Position N 09°11' W 079°53'.
Warning: this ship's position is 8 days out of date.

Length 228 m; draft 14.4 m.

Type: Tanker. MMSI: 356696000.

Date/timePositionNaut miles runAvg speedWind from/ knotsBaromVisibWave heightAir tempDewpointWater temp
2018-Apr-18 19:50N 09°11' W 079°53'3 9.8
2018-Apr-18 19:29N 09°13' W 079°55'1 0.6
2018-Apr-18 18:37N 09°13' W 079°56'0 0.0
2018-Apr-18 18:25N 09°13' W 079°56'0 0.0
2018-Apr-18 12:19N 09°13' W 079°56'3 2.2
2018-Apr-18 10:50N 09°16' W 079°55'0 0.5
2018-Apr-18 10:30N 09°16' W 079°55'0 0.5
2018-Apr-18 10:00N 09°17' W 079°55'0 0.5
2018-Apr-18 09:16N 09°17' W 079°55'1 1.6
2018-Apr-18 08:50N 09°18' W 079°55'2 6.3
2018-Apr-18 08:30N 09°20' W 079°55'3 6.1
2018-Apr-18 08:00N 09°23' W 079°55'3 5.7
2018-Apr-18 07:31N 09°26' W 079°56'1 1.6
2018-Apr-18 06:54N 09°25' W 079°56'0 0.0
2018-Apr-18 06:27N 09°25' W 079°56'0 0.0
2018-Apr-18 05:57N 09°25' W 079°56'0 0.0
2018-Apr-18 05:30N 09°25' W 079°56'0 0.0
2018-Apr-18 05:00N 09°25' W 079°56'0 0.0
2018-Apr-18 04:30N 09°25' W 079°56'0 0.0
2018-Apr-18 04:00N 09°25' W 079°56'0 0.0
2018-Apr-18 03:30N 09°25' W 079°56'0 0.0
2018-Apr-18 02:36N 09°25' W 079°56'0 0.0
2018-Apr-18 02:24N 09°25' W 079°56'0 0.0
2018-Apr-18 01:51N 09°25' W 079°56'0 0.0
2018-Apr-18 01:27N 09°25' W 079°56'0 0.0
2018-Apr-18 01:00N 09°25' W 079°56'0 0.0
2018-Apr-18 00:30N 09°25' W 079°56'0 0.0
2018-Apr-18 00:00N 09°25' W 079°56'0 0.0
2018-Apr-17 23:30N 09°25' W 079°56'0 0.0
2018-Apr-17 22:57N 09°25' W 079°56'0 0.0
2018-Apr-17 22:30N 09°25' W 079°56'0 0.0
2018-Apr-17 22:00N 09°25' W 079°56'0 0.0
2018-Apr-17 21:30N 09°25' W 079°56'0 0.0
2018-Apr-17 21:00N 09°25' W 079°56'0 0.0
2018-Apr-17 20:30N 09°25' W 079°56'0 0.0
2018-Apr-17 20:00N 09°25' W 079°56'0 0.0
2018-Apr-17 19:30N 09°25' W 079°56'0 0.0
2018-Apr-17 19:00N 09°25' W 079°56'0 0.0
2018-Apr-17 18:30N 09°25' W 079°56'0 0.0
2018-Apr-17 18:00N 09°25' W 079°56'0 0.0
2018-Apr-17 17:30N 09°25' W 079°56'0 0.0
2018-Apr-17 17:00N 09°25' W 079°56'0 0.0
2018-Apr-17 16:21N 09°25' W 079°56'0 0.0
2018-Apr-17 16:00N 09°25' W 079°56'0 0.0
2018-Apr-17 15:30N 09°25' W 079°56'0 0.0
2018-Apr-17 14:54N 09°25' W 079°56'0 0.0
2018-Apr-17 14:27N 09°25' W 079°56'0 0.0
2018-Apr-17 14:00N 09°25' W 079°56'0 0.0
2018-Apr-17 13:27N 09°25' W 079°56'0 0.0
2018-Apr-17 12:57N 09°25' W 079°56'0 0.0
2018-Apr-17 12:27N 09°25' W 079°56'0 0.0
2018-Apr-17 11:45N 09°25' W 079°56'0 0.0
2018-Apr-17 11:18N 09°25' W 079°56'0 0.0
2018-Apr-17 11:00N 09°25' W 079°56'0 0.0
2018-Apr-17 10:30N 09°25' W 079°56'0 0.0
2018-Apr-17 09:57N 09°25' W 079°56'0 0.0
2018-Apr-17 09:30N 09°25' W 079°56'0 0.0
2018-Apr-17 09:00N 09°25' W 079°56'0 0.0
2018-Apr-17 08:30N 09°25' W 079°56'0 0.0
2018-Apr-17 08:00N 09°25' W 079°56'0 0.0
2018-Apr-17 07:30N 09°25' W 079°56'0 0.0
2018-Apr-17 07:00N 09°25' W 079°56'0 0.0
2018-Apr-17 06:27N 09°25' W 079°56'0 0.0
2018-Apr-17 06:00N 09°25' W 079°56'0 0.0
2018-Apr-17 05:30N 09°25' W 079°56'0 0.0
2018-Apr-17 05:00N 09°25' W 079°56'0 0.0
2018-Apr-17 04:27N 09°25' W 079°56'0 0.0
2018-Apr-17 04:00N 09°25' W 079°56'0 0.0
2018-Apr-17 03:30N 09°25' W 079°56'0 0.0
2018-Apr-17 03:00N 09°25' W 079°56'0 0.0
2018-Apr-17 02:30N 09°25' W 079°56'0 0.0
2018-Apr-17 02:00N 09°25' W 079°56'0 0.0
2018-Apr-17 01:30N 09°25' W 079°56'0 0.0
2018-Apr-17 01:00N 09°25' W 079°56'0 0.0
2018-Apr-17 00:27N 09°25' W 079°56'0 0.0
2018-Apr-16 23:57N 09°25' W 079°56'0 0.0
2018-Apr-16 23:27N 09°25' W 079°56'0 0.0
2018-Apr-16 22:57N 09°25' W 079°56'0 0.0
2018-Apr-16 22:30N 09°25' W 079°56'0 0.0
2018-Apr-16 22:00N 09°25' W 079°56'0 0.0
2018-Apr-16 21:27N 09°25' W 079°56'0 0.0
2018-Apr-16 21:00N 09°25' W 079°56'0 0.0
2018-Apr-16 20:18N 09°25' W 079°56'0 0.0
2018-Apr-16 20:00N 09°25' W 079°56'0 0.0
2018-Apr-16 19:24N 09°25' W 079°56'0 0.0
2018-Apr-16 19:00N 09°25' W 079°56'0 0.0
2018-Apr-16 18:27N 09°25' W 079°56'0 0.0
2018-Apr-16 18:00N 09°25' W 079°56'0 0.0
2018-Apr-16 17:30N 09°25' W 079°56'0 0.0
2018-Apr-16 17:00N 09°25' W 079°56'0 0.1
2018-Apr-16 16:30N 09°25' W 079°56'0 0.0
2018-Apr-16 15:54N 09°25' W 079°56'0 0.0
2018-Apr-16 14:54N 09°25' W 079°56'0 0.0
2018-Apr-16 14:30N 09°25' W 079°56'0 0.1
2018-Apr-16 14:00N 09°25' W 079°56'0 0.0
2018-Apr-16 13:30N 09°25' W 079°56'0 0.0
2018-Apr-16 13:00N 09°25' W 079°56'0 0.0
2018-Apr-16 12:27N 09°25' W 079°56'0 0.0
2018-Apr-16 11:39N 09°25' W 079°56'0 0.0
2018-Apr-16 11:15N 09°25' W 079°56'0 0.0
2018-Apr-16 10:48N 09°25' W 079°56'0 0.0
2018-Apr-16 10:30N 09°25' W 079°56'0 0.1
2018-Apr-16 10:00N 09°25' W 079°56'0 0.1
2018-Apr-16 09:30N 09°25' W 079°56'0 0.0
2018-Apr-16 09:00N 09°25' W 079°56'0 0.0
2018-Apr-16 08:27N 09°25' W 079°56'0 0.0
2018-Apr-16 08:00N 09°25' W 079°56'0 0.0
2018-Apr-16 07:30N 09°25' W 079°56'0 0.0
2018-Apr-16 07:00N 09°25' W 079°56'0 0.0
2018-Apr-16 06:30N 09°25' W 079°56'0 0.0
2018-Apr-16 06:00N 09°25' W 079°56'0 0.0
2018-Apr-16 05:30N 09°25' W 079°56'0 0.0
2018-Apr-16 05:00N 09°25' W 079°56'0 0.0
2018-Apr-16 04:30N 09°25' W 079°56'0 0.0
2018-Apr-16 04:00N 09°25' W 079°56'0 0.0
2018-Apr-16 03:27N 09°25' W 079°56'0 0.0
2018-Apr-16 03:00N 09°25' W 079°56'0 0.0
2018-Apr-16 02:30N 09°25' W 079°56'0 0.0
2018-Apr-16 02:00N 09°25' W 079°56'0 0.0
2018-Apr-16 01:30N 09°25' W 079°56'0 0.0
2018-Apr-16 00:12N 09°25' W 079°56'0 0.0
2018-Apr-15 23:09N 09°25' W 079°56'0 0.0
2018-Apr-15 22:51N 09°25' W 079°56'0 0.1
2018-Apr-15 22:27N 09°25' W 079°56'0 0.0
2018-Apr-15 22:00N 09°25' W 079°56'0 0.0
2018-Apr-15 21:30N 09°25' W 079°56'0 0.0
2018-Apr-15 20:57N 09°25' W 079°56'0 0.1
2018-Apr-15 20:24N 09°25' W 079°56'0 0.0
2018-Apr-15 20:00N 09°25' W 079°56'0 0.0
2018-Apr-15 19:27N 09°25' W 079°56'0 0.1
2018-Apr-15 18:57N 09°25' W 079°56'0 0.1
2018-Apr-15 18:30N 09°25' W 079°56'0 0.0
2018-Apr-15 18:00N 09°25' W 079°56'0 0.1
2018-Apr-15 17:30N 09°25' W 079°56'0 0.0
2018-Apr-15 16:57N 09°25' W 079°56'0 0.0
2018-Apr-15 16:18N 09°25' W 079°56'0 0.0
2018-Apr-15 15:57N 09°25' W 079°56'0 0.1
2018-Apr-15 15:30N 09°25' W 079°56'0 0.1
2018-Apr-15 14:57N 09°25' W 079°56'0 0.0
2018-Apr-15 14:27N 09°25' W 079°56'0 0.0
2018-Apr-15 13:54N 09°25' W 079°56'0 0.0
2018-Apr-15 12:48N 09°25' W 079°56'0 0.1
2018-Apr-15 12:21N 09°25' W 079°56'0 0.0
2018-Apr-15 11:51N 09°25' W 079°56'0 0.1
2018-Apr-15 11:30N 09°25' W 079°56'0 0.0
2018-Apr-15 11:00N 09°25' W 079°56'0 0.0
2018-Apr-15 10:27N 09°25' W 079°56'0 0.0
2018-Apr-15 09:57N 09°25' W 079°56'0 0.0
2018-Apr-15 09:30N 09°25' W 079°56'0 0.1
2018-Apr-15 08:54N 09°25' W 079°56'0 0.0
2018-Apr-15 08:30N 09°25' W 079°56'0 0.0
2018-Apr-15 08:00N 09°25' W 079°56'0 0.0
2018-Apr-15 07:30N 09°25' W 079°56'0 0.0
2018-Apr-15 07:00N 09°25' W 079°56'0 0.0
2018-Apr-15 06:30N 09°25' W 079°56'0 0.0
2018-Apr-15 06:00N 09°25' W 079°56'0 0.0
2018-Apr-15 05:30N 09°25' W 079°56'0 0.0
2018-Apr-15 05:00N 09°25' W 079°56'0 0.0
2018-Apr-15 04:24N 09°25' W 079°56'0 0.0
2018-Apr-15 04:00N 09°25' W 079°56'0 0.0
2018-Apr-15 03:30N 09°25' W 079°56'0 0.0
2018-Apr-15 03:00N 09°25' W 079°56'0 0.0
2018-Apr-15 02:24N 09°25' W 079°56'0 0.0
2018-Apr-15 02:00N 09°25' W 079°56'0 0.0
2018-Apr-15 01:30N 09°25' W 079°56'0 0.0
2018-Apr-15 00:45N 09°25' W 079°56'0 0.0
2018-Apr-15 00:30N 09°25' W 079°56'0 0.0
2018-Apr-15 00:00N 09°25' W 079°56'0 0.0
2018-Apr-14 23:09N 09°25' W 079°56'0 0.0
2018-Apr-14 22:57N 09°25' W 079°56'0 0.0
2018-Apr-14 22:30N 09°25' W 079°56'0 0.0
2018-Apr-14 21:57N 09°25' W 079°56'0 0.0
2018-Apr-14 19:06N 09°25' W 079°56'0 0.1
2018-Apr-14 19:00N 09°25' W 079°56'0 0.1
2018-Apr-14 18:27N 09°25' W 079°56'0 0.4
2018-Apr-14 18:00N 09°25' W 079°56'1 2.0
2018-Apr-14 17:29N 09°25' W 079°55'4 7.2
2018-Apr-14 17:00N 09°29' W 079°54'4 7.4
2018-Apr-14 16:28N 09°32' W 079°53'  
2018-Apr-11 19:33N 09°32' W 079°49'113.3
2018-Apr-11 19:30N 09°32' W 079°50'713.2
2018-Apr-11 18:59N 09°27' W 079°55'510.3
2018-Apr-11 18:30N 09°22' W 079°55'4 7.9
2018-Apr-11 18:01N 09°18' W 079°55'1 2.7
2018-Apr-11 17:29N 09°17' W 079°55'0 0.4
2018-Apr-11 17:01N 09°16' W 079°55'0 0.6
2018-Apr-11 16:31N 09°16' W 079°55'0 0.8
2018-Apr-11 16:00N 09°16' W 079°55'0 0.9
2018-Apr-11 15:29N 09°15' W 079°55'1 2.0
2018-Apr-11 15:00N 09°14' W 079°55'  

Dump ship's entire track history